createdAt,value
2023-04-17T00:01:45.146Z,1.48
2023-04-17T00:03:47.609Z,1.40
2023-04-17T00:05:49.921Z,1.40
2023-04-17T00:07:52.072Z,1.45
2023-04-17T00:09:54.200Z,1.17
2023-04-17T00:11:56.380Z,1.33
2023-04-17T00:13:58.584Z,1.35
2023-04-17T00:16:00.869Z,1.35
2023-04-17T00:18:03.050Z,1.35
2023-04-17T00:20:09.990Z,1.25
2023-04-17T00:22:12.177Z,1.15
2023-04-17T00:24:14.408Z,1.30
2023-04-17T00:26:16.627Z,1.30
2023-04-17T00:28:19.336Z,1.30
2023-04-17T00:30:21.502Z,1.40
2023-04-17T00:32:23.658Z,1.25
2023-04-17T00:34:25.808Z,1.27
2023-04-17T00:36:28.088Z,1.30
2023-04-17T00:38:30.308Z,1.40
2023-04-17T00:40:32.527Z,1.55
2023-04-17T00:42:34.720Z,1.48
2023-04-17T00:44:36.929Z,1.60
2023-04-17T00:46:39.177Z,1.80
2023-04-17T00:48:41.350Z,1.60
2023-04-17T00:50:44.422Z,1.73
2023-04-17T00:52:47.263Z,1.83
2023-04-17T00:54:49.394Z,1.50
2023-04-17T00:56:52.446Z,1.80
2023-04-17T00:58:55.285Z,1.42
2023-04-17T01:00:57.527Z,1.30
2023-04-17T01:02:59.869Z,1.50
2023-04-17T01:05:02.149Z,1.92
2023-04-17T01:07:04.350Z,2.13
2023-04-17T01:09:06.867Z,2.80
2023-04-17T01:11:09.438Z,2.38
2023-04-17T01:13:11.701Z,2.35
2023-04-17T01:15:13.871Z,2.10
2023-04-17T01:17:16.031Z,2.05
2023-04-17T01:19:18.738Z,2.00
2023-04-17T01:21:21.080Z,1.70
2023-04-17T01:23:23.267Z,1.70
2023-04-17T01:25:25.986Z,1.42
2023-04-17T01:29:30.398Z,1.60
2023-04-17T01:31:32.549Z,1.80
2023-04-17T01:33:34.723Z,1.50
2023-04-17T01:35:36.915Z,1.30
2023-04-17T01:37:39.194Z,1.60
2023-04-17T01:39:41.452Z,1.38
2023-04-17T01:41:43.716Z,1.27
2023-04-17T01:43:46.999Z,1.77
2023-04-17T01:45:49.259Z,1.52
2023-04-17T01:47:51.661Z,1.60
2023-04-17T01:49:53.901Z,1.60
2023-04-17T01:51:56.062Z,1.73
2023-04-17T01:53:58.182Z,2.05
2023-04-17T01:56:01.903Z,1.90
2023-04-17T01:58:04.171Z,1.80
2023-04-17T02:00:07.969Z,2.03
2023-04-17T02:02:10.165Z,1.77
2023-04-17T02:04:12.516Z,1.67
2023-04-17T02:06:14.837Z,2.05
2023-04-17T02:08:17.225Z,1.90
2023-04-17T02:10:19.418Z,1.60
2023-04-17T02:12:21.887Z,2.17
2023-04-17T02:14:24.081Z,1.40
2023-04-17T02:16:26.341Z,1.55
2023-04-17T02:18:28.771Z,1.80
2023-04-17T02:20:30.986Z,1.60
2023-04-17T02:22:33.283Z,1.90
2023-04-17T02:24:35.497Z,1.90
2023-04-17T02:26:37.903Z,2.08
2023-04-17T02:28:40.385Z,2.08
2023-04-17T02:30:42.622Z,1.50
2023-04-17T02:32:45.261Z,1.83
2023-04-17T02:36:49.539Z,1.90
2023-04-17T02:38:51.798Z,1.85
2023-04-17T02:40:54.079Z,1.80
2023-04-17T02:42:56.805Z,1.75
2023-04-17T02:47:01.176Z,2.13
2023-04-17T02:49:03.414Z,1.75
2023-04-17T02:51:05.913Z,1.80
2023-04-17T02:53:09.008Z,2.00
2023-04-17T02:55:11.213Z,2.15
2023-04-17T02:57:13.432Z,2.10
2023-04-17T02:59:15.833Z,1.70
2023-04-17T03:01:18.128Z,1.75
2023-04-17T03:03:20.492Z,1.83
2023-04-17T03:05:25.864Z,2.03
2023-04-17T03:07:28.282Z,1.90
2023-04-17T03:09:31.003Z,1.90
2023-04-17T03:11:33.209Z,1.92
2023-04-17T03:13:39.011Z,1.95
2023-04-17T03:15:41.424Z,2.00
2023-04-17T03:17:43.768Z,2.28
2023-04-17T03:19:46.027Z,1.88
2023-04-17T03:21:48.193Z,2.10
2023-04-17T03:23:50.590Z,2.42
2023-04-17T03:25:52.862Z,2.15
2023-04-17T03:27:56.460Z,2.25
2023-04-17T03:29:58.706Z,2.60
2023-04-17T03:32:00.997Z,2.30
2023-04-17T03:34:03.696Z,2.40
2023-04-17T03:38:08.400Z,2.17
2023-04-17T03:40:10.770Z,2.22
2023-04-17T03:42:14.636Z,2.33
2023-04-17T03:44:17.444Z,2.30
2023-04-17T03:48:21.769Z,3.72
2023-04-17T03:50:23.903Z,3.00
2023-04-17T03:52:26.288Z,2.80
2023-04-17T03:54:29.852Z,2.72
2023-04-17T03:56:32.286Z,2.65
2023-04-17T03:58:34.750Z,3.08
2023-04-17T04:00:37.486Z,3.45
2023-04-17T04:02:39.769Z,2.63
2023-04-17T04:04:42.183Z,2.90
2023-04-17T04:06:45.033Z,2.90
2023-04-17T04:08:47.395Z,3.25
2023-04-17T04:10:49.599Z,3.83
2023-04-17T04:12:51.768Z,3.33
2023-04-17T04:14:53.966Z,2.80
2023-04-17T04:16:56.106Z,3.17
2023-04-17T04:18:58.269Z,3.30
2023-04-17T04:21:00.409Z,2.72
2023-04-17T04:23:04.524Z,3.35
2023-04-17T04:25:07.019Z,2.95
2023-04-17T04:27:09.276Z,3.00
2023-04-17T04:29:11.975Z,4.00
2023-04-17T04:31:18.878Z,4.25
2023-04-17T04:33:21.480Z,4.50
2023-04-17T04:35:30.282Z,4.47
2023-04-17T04:37:32.665Z,4.30
2023-04-17T04:39:37.914Z,4.28
2023-04-17T04:41:45.884Z,5.00
2023-04-17T04:43:47.995Z,4.20
2023-04-17T04:45:50.340Z,4.60
2023-04-17T04:47:52.769Z,4.53
2023-04-17T04:49:55.012Z,4.97
2023-04-17T04:51:57.220Z,5.05
2023-04-17T04:53:59.456Z,5.43
2023-04-17T04:56:01.660Z,4.75
2023-04-17T04:58:03.862Z,5.70
2023-04-17T05:00:06.669Z,5.53
2023-04-17T05:02:09.134Z,6.22
2023-04-17T05:04:11.544Z,5.72
2023-04-17T05:06:14.432Z,6.38
2023-04-17T05:08:16.962Z,6.28
2023-04-17T05:10:19.230Z,7.15
2023-04-17T05:12:21.425Z,7.60
2023-04-17T05:14:23.595Z,7.38
2023-04-17T05:16:25.770Z,6.78
2023-04-17T05:18:27.947Z,7.75
2023-04-17T05:20:30.775Z,7.78
2023-04-17T05:22:33.355Z,8.65
2023-04-17T05:24:35.644Z,7.68
2023-04-17T05:26:37.754Z,8.27
2023-04-17T05:28:39.928Z,7.93
2023-04-17T05:30:42.170Z,7.93
2023-04-17T05:32:45.410Z,7.75
2023-04-17T05:34:47.615Z,7.15
2023-04-17T05:36:49.721Z,7.97
2023-04-17T05:38:52.022Z,8.02
2023-04-17T05:40:54.448Z,8.18
2023-04-17T05:42:56.611Z,7.95
2023-04-17T05:44:58.753Z,7.30
2023-04-17T05:47:00.835Z,7.30
2023-04-17T05:49:02.958Z,6.28
2023-04-17T05:51:05.480Z,6.78
2023-04-17T05:53:07.832Z,6.07
2023-04-17T05:55:10.816Z,6.85
2023-04-17T05:57:12.933Z,7.25
2023-04-17T05:59:15.048Z,8.57
2023-04-17T06:01:22.347Z,7.43
2023-04-17T06:03:24.810Z,7.22
2023-04-17T06:07:29.518Z,6.53
2023-04-17T06:09:32.124Z,7.43
2023-04-17T06:11:34.326Z,7.57
2023-04-17T06:13:36.963Z,7.57
2023-04-17T06:17:41.849Z,6.23
2023-04-17T06:19:44.063Z,5.80
2023-04-17T06:21:46.275Z,5.80
2023-04-17T06:23:48.449Z,6.00
2023-04-17T06:25:50.685Z,5.07
2023-04-17T06:27:52.914Z,5.55
2023-04-17T06:29:55.060Z,5.40
2023-04-17T06:31:57.312Z,5.32
2023-04-17T06:34:02.588Z,5.30
2023-04-17T06:36:04.831Z,4.50
2023-04-17T06:38:07.365Z,4.93
2023-04-17T06:40:09.830Z,4.40
2023-04-17T06:42:12.123Z,4.70
2023-04-17T06:44:14.338Z,5.30
2023-04-17T06:46:16.682Z,5.45
2023-04-17T06:48:18.903Z,5.18
2023-04-17T06:50:21.098Z,5.00
2023-04-17T06:52:23.226Z,4.93
2023-04-17T06:54:25.631Z,5.20
2023-04-17T06:56:27.772Z,5.43
2023-04-17T06:58:29.903Z,5.22
2023-04-17T07:00:32.091Z,5.07
2023-04-17T07:02:34.401Z,4.85
2023-04-17T07:04:36.683Z,5.28
2023-04-17T07:06:39.630Z,5.25
2023-04-17T07:08:41.829Z,5.55
2023-04-17T07:10:43.998Z,5.25
2023-04-17T07:12:46.411Z,5.45
2023-04-17T07:14:48.525Z,5.90
2023-04-17T07:16:50.897Z,5.47
2023-04-17T07:18:53.305Z,5.68
2023-04-17T07:20:56.241Z,5.78
2023-04-17T07:22:58.749Z,5.13
2023-04-17T07:25:01.275Z,5.63
2023-04-17T07:27:03.981Z,5.65
2023-04-17T07:31:08.810Z,5.78
2023-04-17T07:33:11.183Z,5.63
2023-04-17T07:35:13.353Z,6.03
2023-04-17T07:37:15.767Z,5.88
2023-04-17T07:39:18.082Z,6.03
2023-04-17T07:41:20.344Z,5.72
2023-04-17T07:43:22.544Z,5.68
2023-04-17T07:45:24.704Z,6.10
2023-04-17T07:47:26.931Z,5.65
2023-04-17T07:49:30.263Z,5.57
2023-04-17T07:51:32.863Z,5.43
2023-04-17T07:53:36.226Z,5.15
2023-04-17T07:55:38.368Z,5.40
2023-04-17T07:57:42.762Z,5.30
2023-04-17T07:59:45.735Z,4.78
2023-04-17T08:01:47.929Z,6.10
2023-04-17T08:03:51.806Z,5.15
2023-04-17T08:05:54.255Z,5.68
2023-04-17T08:07:56.931Z,5.93
2023-04-17T08:09:59.064Z,6.50
2023-04-17T08:12:01.959Z,6.15
2023-04-17T08:14:04.209Z,5.75
2023-04-17T08:16:07.360Z,6.20
2023-04-17T08:18:10.172Z,5.97
2023-04-17T08:20:13.466Z,5.95
2023-04-17T08:22:15.859Z,7.25
2023-04-17T08:24:19.956Z,6.28
2023-04-17T08:26:23.047Z,5.85
2023-04-17T08:28:25.236Z,5.50
2023-04-17T08:30:27.574Z,6.53
2023-04-17T08:32:29.774Z,6.90
2023-04-17T08:34:32.809Z,6.65
2023-04-17T08:36:35.025Z,7.05
2023-04-17T08:38:37.354Z,8.20
2023-04-17T08:40:42.071Z,8.07
2023-04-17T08:42:44.362Z,8.75
2023-04-17T08:44:46.622Z,7.00
2023-04-17T08:46:49.462Z,7.90
2023-04-17T08:48:52.279Z,7.93
2023-04-17T08:50:55.061Z,8.82
2023-04-17T08:55:01.722Z,8.98
2023-04-17T08:57:04.491Z,7.38
2023-04-17T08:59:06.681Z,8.13
2023-04-17T09:01:12.794Z,7.80
2023-04-17T09:03:15.508Z,8.18
2023-04-17T09:05:21.785Z,8.57
2023-04-17T09:07:31.809Z,9.07
2023-04-17T09:09:52.879Z,8.73
2023-04-17T09:12:11.144Z,8.95
2023-04-17T09:14:31.895Z,8.23
2023-04-17T09:16:35.303Z,9.57
2023-04-17T09:18:38.049Z,9.43
2023-04-17T09:22:42.438Z,10.77
2023-04-17T09:24:44.861Z,11.48
2023-04-17T09:26:47.078Z,11.25
2023-04-17T09:29:01.801Z,11.30
2023-04-17T09:31:05.545Z,12.63
2023-04-17T09:33:08.590Z,13.07
2023-04-17T09:35:10.856Z,13.98
2023-04-17T09:37:13.042Z,13.65
2023-04-17T09:39:24.384Z,14.93
2023-04-17T09:41:27.780Z,13.63
2023-04-17T09:43:44.487Z,14.32
2023-04-17T09:45:46.830Z,14.18
2023-04-17T09:47:49.363Z,14.65
2023-04-17T09:49:52.889Z,14.32
2023-04-17T09:51:56.870Z,14.27
2023-04-17T09:53:59.984Z,15.35
2023-04-17T09:56:05.554Z,14.95
2023-04-17T09:58:08.197Z,15.48
2023-04-17T10:02:15.285Z,15.55
2023-04-17T10:04:18.065Z,16.00
2023-04-17T10:06:20.641Z,16.73
2023-04-17T10:08:23.064Z,16.58
2023-04-17T10:10:33.641Z,15.18
2023-04-17T10:12:37.172Z,14.80
2023-04-17T10:14:40.178Z,15.27
2023-04-17T10:16:43.688Z,16.02
2023-04-17T10:18:46.177Z,16.15
2023-04-17T10:20:48.593Z,16.15
2023-04-17T10:22:54.858Z,15.73
2023-04-17T10:25:14.806Z,15.50
2023-04-17T10:27:28.722Z,16.58
2023-04-17T10:29:49.753Z,17.52
2023-04-17T10:32:10.790Z,16.30
2023-04-17T10:34:33.113Z,15.77
2023-04-17T10:36:41.508Z,16.90
2023-04-17T10:38:44.360Z,15.45
2023-04-17T10:40:46.522Z,17.45
2023-04-17T10:43:06.856Z,15.13
2023-04-17T10:45:18.984Z,17.77
2023-04-17T10:47:22.493Z,17.60
2023-04-17T10:49:24.929Z,15.60
2023-04-17T10:51:27.857Z,16.90
2023-04-17T10:53:45.753Z,18.60
2023-04-17T10:55:50.531Z,17.65
2023-04-17T10:57:52.685Z,16.83
2023-04-17T11:00:12.014Z,15.93
2023-04-17T11:02:15.458Z,16.40
2023-04-17T11:04:31.547Z,17.52
2023-04-17T11:06:37.409Z,17.17
2023-04-17T11:08:39.719Z,15.27
2023-04-17T11:10:42.041Z,15.75
2023-04-17T11:12:53.210Z,16.58
2023-04-17T11:15:01.822Z,15.98
2023-04-17T11:17:04.237Z,17.35
2023-04-17T11:19:06.663Z,16.95
2023-04-17T11:21:11.181Z,15.75
2023-04-17T11:23:13.713Z,17.20
2023-04-17T11:25:23.045Z,16.05
2023-04-17T11:27:25.306Z,16.90
2023-04-17T11:29:28.319Z,17.27
2023-04-17T11:31:30.675Z,17.23
2023-04-17T11:33:36.883Z,16.60
2023-04-17T11:35:40.875Z,14.88
2023-04-17T11:38:01.867Z,16.23
2023-04-17T11:40:08.875Z,17.08
2023-04-17T11:42:11.527Z,17.02
2023-04-17T11:44:14.135Z,16.42
2023-04-17T11:46:16.508Z,16.30
2023-04-17T11:48:22.949Z,14.73
2023-04-17T11:50:29.200Z,14.57
2023-04-17T11:52:31.460Z,14.13
2023-04-17T11:54:33.632Z,14.55
2023-04-17T11:56:35.846Z,13.02
2023-04-17T11:58:45.658Z,12.50
2023-04-17T12:01:04.253Z,12.18
2023-04-17T12:03:27.061Z,12.20
2023-04-17T12:05:30.261Z,13.07
2023-04-17T12:07:32.963Z,13.25
2023-04-17T12:09:35.893Z,14.68
2023-04-17T12:11:38.165Z,15.02
2023-04-17T12:13:40.462Z,15.02
2023-04-17T12:15:42.750Z,14.65
2023-04-17T12:17:44.947Z,14.52
2023-04-17T12:19:47.108Z,14.30
2023-04-17T12:21:49.251Z,14.60
2023-04-17T12:23:51.858Z,14.70
2023-04-17T12:25:54.101Z,13.77
2023-04-17T12:27:59.145Z,12.88
2023-04-17T12:30:01.275Z,13.18
2023-04-17T12:32:03.766Z,13.38
2023-04-17T12:34:06.365Z,12.07
2023-04-17T12:36:08.954Z,11.75
2023-04-17T12:38:11.278Z,11.93
2023-04-17T12:40:13.468Z,12.02
2023-04-17T12:42:16.249Z,11.80
2023-04-17T12:46:20.521Z,11.07
2023-04-17T12:48:22.704Z,12.18
2023-04-17T12:50:25.222Z,11.85
2023-04-17T12:52:27.420Z,11.70
2023-04-17T12:54:29.597Z,11.25
2023-04-17T12:56:31.862Z,10.73
2023-04-17T12:58:34.080Z,10.95
2023-04-17T13:00:36.345Z,10.85
2023-04-17T13:02:38.634Z,10.43
2023-04-17T13:04:41.283Z,11.18
2023-04-17T13:06:43.634Z,10.65
2023-04-17T13:08:46.074Z,9.88
2023-04-17T13:10:48.323Z,10.13
2023-04-17T13:12:50.719Z,9.38
2023-04-17T13:14:53.325Z,7.95
2023-04-17T13:16:55.690Z,8.00
2023-04-17T13:18:57.942Z,9.13
2023-04-17T13:21:00.188Z,8.60
2023-04-17T13:23:02.567Z,9.07
2023-04-17T13:25:04.995Z,8.45
2023-04-17T13:27:07.188Z,8.35
2023-04-17T13:29:09.642Z,8.50
2023-04-17T13:31:13.216Z,8.40
2023-04-17T13:33:15.486Z,8.43
2023-04-17T13:35:17.806Z,7.60
2023-04-17T13:37:20.062Z,7.55
2023-04-17T13:39:25.440Z,7.60
2023-04-17T13:41:27.625Z,7.50
2023-04-17T13:43:29.901Z,7.90
2023-04-17T13:45:32.164Z,7.50
2023-04-17T13:47:34.452Z,8.10
2023-04-17T13:49:36.655Z,8.05
2023-04-17T13:51:38.812Z,7.82
2023-04-17T13:53:41.287Z,7.45
2023-04-17T13:55:43.487Z,7.78
2023-04-17T13:57:45.719Z,7.65
2023-04-17T13:59:47.896Z,6.55
2023-04-17T14:01:50.161Z,6.63
2023-04-17T14:03:52.589Z,6.55
2023-04-17T14:05:54.988Z,5.97
2023-04-17T14:07:57.247Z,6.43
2023-04-17T14:09:59.429Z,6.07
2023-04-17T14:12:02.346Z,6.63
2023-04-17T14:14:04.632Z,6.65
2023-04-17T14:16:07.062Z,7.43
2023-04-17T14:18:09.855Z,7.88
2023-04-17T14:22:14.287Z,7.15
2023-04-17T14:24:16.601Z,7.13
2023-04-17T14:26:18.807Z,8.15
2023-04-17T14:28:21.360Z,7.60
2023-04-17T14:30:23.690Z,7.57
2023-04-17T14:32:25.943Z,7.90
2023-04-17T14:34:28.187Z,8.00
2023-04-17T14:36:31.155Z,6.78
2023-04-17T14:38:34.341Z,7.65
2023-04-17T14:40:36.534Z,7.72
2023-04-17T14:42:51.215Z,7.57
2023-04-17T14:44:56.072Z,7.72
2023-04-17T14:46:58.393Z,7.88
2023-04-17T14:49:00.575Z,6.80
2023-04-17T14:51:02.749Z,7.43
2023-04-17T14:53:04.907Z,7.60
2023-04-17T14:55:07.292Z,7.80
2023-04-17T14:57:09.457Z,7.72
2023-04-17T14:59:12.083Z,7.40
2023-04-17T15:01:14.534Z,7.80
2023-04-17T15:03:16.919Z,7.63
2023-04-17T15:05:20.905Z,7.93
2023-04-17T15:07:23.163Z,8.35
2023-04-17T15:09:25.347Z,7.75
2023-04-17T15:11:27.548Z,5.95
2023-04-17T15:13:29.680Z,5.95
2023-04-17T15:15:31.944Z,5.45
2023-04-17T15:17:35.813Z,5.43
2023-04-17T15:19:38.026Z,4.70
2023-04-17T15:21:40.172Z,4.18
2023-04-17T15:23:42.366Z,4.00
2023-04-17T15:25:44.664Z,4.25
2023-04-17T15:27:46.865Z,3.95
2023-04-17T15:29:49.275Z,4.32
2023-04-17T15:31:52.703Z,4.30
2023-04-17T15:33:55.115Z,4.00
2023-04-17T15:35:58.582Z,4.03
2023-04-17T15:38:00.782Z,3.65
2023-04-17T15:40:03.430Z,4.25
2023-04-17T15:44:10.718Z,3.72
2023-04-17T15:46:12.949Z,3.28
2023-04-17T15:48:15.908Z,3.38
2023-04-17T15:50:19.135Z,3.63
2023-04-17T15:52:21.273Z,3.42
2023-04-17T15:54:23.633Z,3.60
2023-04-17T15:56:25.848Z,3.42
2023-04-17T15:58:28.016Z,3.47
2023-04-17T16:00:30.297Z,3.80
2023-04-17T16:02:32.622Z,3.80
2023-04-17T16:04:35.118Z,3.70
2023-04-17T16:06:37.363Z,3.92
2023-04-17T16:08:39.645Z,3.58
2023-04-17T16:10:42.475Z,4.30
2023-04-17T16:12:45.266Z,4.20
2023-04-17T16:16:50.388Z,4.10
2023-04-17T16:18:52.529Z,3.90
2023-04-17T16:20:54.749Z,3.90
2023-04-17T16:22:57.262Z,4.38
2023-04-17T16:24:59.497Z,4.93
2023-04-17T16:27:02.852Z,4.97
2023-04-17T16:29:05.312Z,5.05
2023-04-17T16:31:07.502Z,4.80
2023-04-17T16:33:09.693Z,5.80
2023-04-17T16:35:11.884Z,5.22
2023-04-17T16:37:14.969Z,5.22
2023-04-17T16:39:17.152Z,5.18
2023-04-17T16:41:19.368Z,4.60
2023-04-17T16:43:21.531Z,5.15
2023-04-17T16:45:23.714Z,5.40
2023-04-17T16:47:26.277Z,5.80
2023-04-17T16:49:28.803Z,5.55
2023-04-17T16:51:31.903Z,6.07
2023-04-17T16:53:34.334Z,6.25
2023-04-17T16:55:37.367Z,8.25
2023-04-17T16:57:42.919Z,6.85
2023-04-17T16:59:45.311Z,6.28
2023-04-17T17:01:49.729Z,6.88
2023-04-17T17:03:53.225Z,5.93
2023-04-17T17:05:57.539Z,6.80
2023-04-17T17:07:59.992Z,6.45
2023-04-17T17:10:02.270Z,6.30
2023-04-17T17:12:04.978Z,6.78
2023-04-17T17:16:09.969Z,6.10
2023-04-17T17:20:14.697Z,6.18
2023-04-17T17:22:17.042Z,6.75
2023-04-17T17:24:19.285Z,6.43
2023-04-17T17:26:21.635Z,6.55
2023-04-17T17:28:24.092Z,6.40
2023-04-17T17:30:26.444Z,7.00
2023-04-17T17:32:29.019Z,7.85
2023-04-17T17:34:32.534Z,8.38
2023-04-17T17:36:35.079Z,8.60
2023-04-17T17:38:37.425Z,7.20
2023-04-17T17:40:39.739Z,8.05
2023-04-17T17:42:42.202Z,18.10
2023-04-17T17:44:44.555Z,11.60
2023-04-17T17:46:47.161Z,7.78
2023-04-17T17:48:49.710Z,8.02
2023-04-17T17:50:55.298Z,8.52
2023-04-17T17:52:58.970Z,8.88
2023-04-17T17:55:01.552Z,9.25
2023-04-17T17:57:04.800Z,9.27
2023-04-17T17:59:07.901Z,9.00
2023-04-17T18:01:10.562Z,8.63
2023-04-17T18:05:17.947Z,9.63
2023-04-17T18:07:22.203Z,9.18
2023-04-17T18:09:24.376Z,9.60
2023-04-17T18:11:27.510Z,9.38
2023-04-17T18:13:29.736Z,8.60
2023-04-17T18:15:31.926Z,8.85
2023-04-17T18:17:34.201Z,8.60
2023-04-17T18:19:40.825Z,8.38
2023-04-17T18:21:43.816Z,8.82
2023-04-17T18:23:47.140Z,8.60
2023-04-17T18:26:02.254Z,9.60
2023-04-17T18:28:04.496Z,9.63
2023-04-17T18:30:07.470Z,9.65
2023-04-17T18:32:09.689Z,11.02
2023-04-17T18:34:12.084Z,10.05
2023-04-17T18:36:14.318Z,12.27
2023-04-17T18:38:16.907Z,9.02
2023-04-17T18:40:19.132Z,8.88
2023-04-17T18:42:21.731Z,8.93
2023-04-17T18:46:27.012Z,8.85
2023-04-17T18:48:29.344Z,7.97
2023-04-17T18:50:31.552Z,8.60
2023-04-17T18:52:37.642Z,8.68
2023-04-17T18:54:39.911Z,8.55
2023-04-17T18:56:42.198Z,9.70
2023-04-17T18:58:44.388Z,9.50
2023-04-17T19:00:46.632Z,9.32
2023-04-17T19:02:48.998Z,7.90
2023-04-17T19:04:51.347Z,8.85
2023-04-17T19:06:54.100Z,8.15
2023-04-17T19:10:59.429Z,7.70
2023-04-17T19:13:01.590Z,7.57
2023-04-17T19:15:05.680Z,7.90
2023-04-17T19:17:07.892Z,8.65
2023-04-17T19:19:11.305Z,14.30
2023-04-17T19:21:15.652Z,14.95
2023-04-17T19:23:17.835Z,15.55
2023-04-17T19:25:20.034Z,13.80
2023-04-17T19:27:23.783Z,11.93
2023-04-17T19:29:26.808Z,10.55
2023-04-17T19:31:28.980Z,10.93
2023-04-17T19:33:34.284Z,10.25
2023-04-17T19:35:36.480Z,10.52
2023-04-17T19:37:38.652Z,12.38
2023-04-17T19:39:40.810Z,11.43
2023-04-17T19:41:46.029Z,10.50
2023-04-17T19:43:52.671Z,8.63
2023-04-17T19:45:54.853Z,7.68
2023-04-17T19:47:57.344Z,7.40
2023-04-17T19:49:59.589Z,7.80
2023-04-17T19:52:01.835Z,8.15
2023-04-17T19:54:04.086Z,7.55
2023-04-17T19:56:08.503Z,8.13
2023-04-17T19:58:10.898Z,7.75
2023-04-17T20:00:14.470Z,8.77
2023-04-17T20:02:18.131Z,9.15
2023-04-17T20:04:20.513Z,11.32
2023-04-17T20:06:22.808Z,11.00
2023-04-17T20:08:25.434Z,10.48
2023-04-17T20:10:27.795Z,8.70
2023-04-17T20:12:29.988Z,8.75
2023-04-17T20:14:32.357Z,8.27
2023-04-17T20:16:34.573Z,8.48
2023-04-17T20:18:37.968Z,7.97
2023-04-17T20:20:40.248Z,8.13
2023-04-17T20:22:42.375Z,8.63
2023-04-17T20:24:44.564Z,8.25
2023-04-17T20:26:46.769Z,8.90
2023-04-17T20:28:49.294Z,8.80
2023-04-17T20:30:51.493Z,9.98
2023-04-17T20:32:53.753Z,9.48
2023-04-17T20:34:55.917Z,10.35
2023-04-17T20:36:58.051Z,10.93
2023-04-17T20:39:00.200Z,9.93
2023-04-17T20:41:02.366Z,10.45
2023-04-17T20:43:04.639Z,10.43
2023-04-17T20:45:10.369Z,9.63
2023-04-17T20:47:12.571Z,9.60
2023-04-17T20:49:14.816Z,10.43
2023-04-17T20:51:18.182Z,10.43
2023-04-17T20:53:20.408Z,9.57
2023-04-17T20:55:24.194Z,9.65
2023-04-17T20:57:26.399Z,9.63
2023-04-17T20:59:28.922Z,10.15
2023-04-17T21:01:31.151Z,10.48
2023-04-17T21:03:33.588Z,9.90
2023-04-17T21:05:35.881Z,10.48
2023-04-17T21:07:38.500Z,9.38
2023-04-17T21:09:40.768Z,9.52
2023-04-17T21:11:42.916Z,9.27
2023-04-17T21:13:45.147Z,9.93
2023-04-17T21:15:47.411Z,9.90
2023-04-17T21:17:49.645Z,9.90
2023-04-17T21:19:52.115Z,10.20
2023-04-17T21:21:54.932Z,10.60
2023-04-17T21:23:57.077Z,10.18
2023-04-17T21:25:59.246Z,10.25
2023-04-17T21:28:01.407Z,11.15
2023-04-17T21:30:04.430Z,10.55
2023-04-17T21:32:06.851Z,11.30
2023-04-17T21:34:09.471Z,10.82
2023-04-17T21:36:11.597Z,10.82
2023-04-17T21:38:13.770Z,10.63
2023-04-17T21:40:15.926Z,11.45
2023-04-17T21:42:18.142Z,10.65
2023-04-17T21:44:20.370Z,11.18
2023-04-17T21:46:22.563Z,11.50
2023-04-17T21:48:24.748Z,12.05
2023-04-17T21:50:26.927Z,11.68
2023-04-17T21:52:29.102Z,11.73
2023-04-17T21:54:31.274Z,12.70
2023-04-17T21:56:33.472Z,12.85
2023-04-17T21:58:35.700Z,12.52
2023-04-17T22:00:37.878Z,12.88
2023-04-17T22:02:40.185Z,13.32
2023-04-17T22:04:42.559Z,13.50
2023-04-17T22:06:44.798Z,13.00
2023-04-17T22:08:46.961Z,12.45
2023-04-17T22:10:49.191Z,13.35
2023-04-17T22:12:51.749Z,14.05
2023-04-17T22:14:53.974Z,12.90
2023-04-17T22:16:56.249Z,12.90
2023-04-17T22:18:58.451Z,12.70
2023-04-17T22:21:00.585Z,12.70
2023-04-17T22:23:02.728Z,11.48
2023-04-17T22:25:05.203Z,11.85
2023-04-17T22:27:07.489Z,12.10
2023-04-17T22:29:09.662Z,12.35
2023-04-17T22:31:14.007Z,12.55
2023-04-17T22:33:16.188Z,11.77
2023-04-17T22:35:18.289Z,10.93
2023-04-17T22:37:20.567Z,11.65
2023-04-17T22:39:22.755Z,11.50
2023-04-17T22:41:25.022Z,11.48
2023-04-17T22:43:27.186Z,10.48
2023-04-17T22:45:29.324Z,10.43
2023-04-17T22:47:31.529Z,10.07
2023-04-17T22:49:38.060Z,10.60
2023-04-17T22:51:41.219Z,10.23
2023-04-17T22:53:43.408Z,9.95
2023-04-17T22:55:45.662Z,9.57
2023-04-17T22:57:47.833Z,9.25
2023-04-17T22:59:49.996Z,8.93
2023-04-17T23:01:52.355Z,8.88
2023-04-17T23:03:54.558Z,8.77
2023-04-17T23:05:57.075Z,8.40
2023-04-17T23:07:59.278Z,8.25
2023-04-17T23:10:01.465Z,8.23
2023-04-17T23:12:03.881Z,8.10
2023-04-17T23:14:06.137Z,8.70
2023-04-17T23:16:08.592Z,8.35
2023-04-17T23:18:10.958Z,7.85
2023-04-17T23:20:13.237Z,7.90
2023-04-17T23:22:15.422Z,7.93
2023-04-17T23:24:17.574Z,8.38
2023-04-17T23:26:19.792Z,7.95
2023-04-17T23:28:22.006Z,8.40
2023-04-17T23:30:24.121Z,7.90
2023-04-17T23:32:26.951Z,7.82
2023-04-17T23:34:29.205Z,8.45
2023-04-17T23:36:31.756Z,8.07
2023-04-17T23:38:33.906Z,8.60
2023-04-17T23:40:36.515Z,8.38
2023-04-17T23:42:38.670Z,7.78
2023-04-17T23:44:40.833Z,8.90
2023-04-17T23:46:43.074Z,8.43
2023-04-17T23:48:45.387Z,8.70
2023-04-17T23:50:47.515Z,8.00
2023-04-17T23:52:49.965Z,9.10
2023-04-17T23:54:52.127Z,7.78
2023-04-17T23:56:54.278Z,8.60
2023-04-17T23:58:56.857Z,8.45
